sensor_id;sensor_type;location;lat;lon;timestamp;pressure;altitude;pressure_sealevel;temperature;humidity
58471;BME280;44258;51.288;12.068;2023-12-07T00:01:31;100617.84;;;5.33;69.10
58471;BME280;44258;51.288;12.068;2023-12-07T00:04:01;100618.66;;;5.36;69.21
58471;BME280;44258;51.288;12.068;2023-12-07T00:06:28;100619.91;;;5.53;69.02
58471;BME280;44258;51.288;12.068;2023-12-07T00:08:54;100622.50;;;5.57;68.21
58471;BME280;44258;51.288;12.068;2023-12-07T00:11:22;100628.47;;;5.65;68.28
58471;BME280;44258;51.288;12.068;2023-12-07T00:13:49;100632.75;;;5.70;67.86
58471;BME280;44258;51.288;12.068;2023-12-07T00:16:15;100630.91;;;5.72;67.49
58471;BME280;44258;51.288;12.068;2023-12-07T00:18:42;100630.91;;;5.72;67.73
58471;BME280;44258;51.288;12.068;2023-12-07T00:21:10;100637.06;;;5.74;67.21
58471;BME280;44258;51.288;12.068;2023-12-07T00:23:37;100632.59;;;5.75;67.47
58471;BME280;44258;51.288;12.068;2023-12-07T00:26:04;100637.09;;;5.73;67.23
58471;BME280;44258;51.288;12.068;2023-12-07T00:28:31;100640.59;;;5.75;67.42
58471;BME280;44258;51.288;12.068;2023-12-07T00:30:58;100639.94;;;5.68;67.13
58471;BME280;44258;51.288;12.068;2023-12-07T00:33:25;100641.84;;;5.63;67.87
58471;BME280;44258;51.288;12.068;2023-12-07T00:35:51;100641.97;;;5.60;68.07
58471;BME280;44258;51.288;12.068;2023-12-07T00:38:19;100633.22;;;5.55;67.75
58471;BME280;44258;51.288;12.068;2023-12-07T00:40:46;100645.00;;;5.48;68.13
58471;BME280;44258;51.288;12.068;2023-12-07T00:43:13;100638.00;;;5.44;68.82
58471;BME280;44258;51.288;12.068;2023-12-07T00:45:41;100641.59;;;5.43;68.63
58471;BME280;44258;51.288;12.068;2023-12-07T00:48:08;100639.13;;;5.35;68.99
58471;BME280;44258;51.288;12.068;2023-12-07T00:50:34;100640.91;;;5.36;68.92
58471;BME280;44258;51.288;12.068;2023-12-07T00:53:01;100641.63;;;5.41;68.78
58471;BME280;44258;51.288;12.068;2023-12-07T00:55:29;100646.13;;;5.39;68.61
58471;BME280;44258;51.288;12.068;2023-12-07T00:57:56;100652.19;;;5.46;69.12
58471;BME280;44258;51.288;12.068;2023-12-07T01:00:23;100656.56;;;5.47;69.02
58471;BME280;44258;51.288;12.068;2023-12-07T01:02:49;100653.84;;;5.50;68.74
58471;BME280;44258;51.288;12.068;2023-12-07T01:05:19;100652.41;;;5.38;68.79
58471;BME280;44258;51.288;12.068;2023-12-07T01:07:46;100650.59;;;5.39;68.98
58471;BME280;44258;51.288;12.068;2023-12-07T01:10:13;100657.38;;;5.50;69.07
58471;BME280;44258;51.288;12.068;2023-12-07T01:12:43;100661.53;;;5.59;68.47
58471;BME280;44258;51.288;12.068;2023-12-07T01:15:11;100663.31;;;5.60;68.26
58471;BME280;44258;51.288;12.068;2023-12-07T01:17:38;100667.16;;;5.50;68.66
58471;BME280;44258;51.288;12.068;2023-12-07T01:20:06;100668.72;;;5.57;68.63
58471;BME280;44258;51.288;12.068;2023-12-07T01:22:38;100679.50;;;5.54;68.34
58471;BME280;44258;51.288;12.068;2023-12-07T01:25:06;100677.59;;;5.58;68.33
58471;BME280;44258;51.288;12.068;2023-12-07T01:27:32;100685.59;;;5.58;68.21
58471;BME280;44258;51.288;12.068;2023-12-07T01:30:00;100681.22;;;5.55;68.34
58471;BME280;44258;51.288;12.068;2023-12-07T01:32:29;100686.53;;;5.57;68.15
58471;BME280;44258;51.288;12.068;2023-12-07T01:34:55;100691.63;;;5.64;68.14
58471;BME280;44258;51.288;12.068;2023-12-07T01:37:22;100695.06;;;5.68;68.28
58471;BME280;44258;51.288;12.068;2023-12-07T01:39:49;100694.69;;;5.50;68.65
58471;BME280;44258;51.288;12.068;2023-12-07T01:42:16;100702.66;;;5.52;68.90
58471;BME280;44258;51.288;12.068;2023-12-07T01:44:42;100699.00;;;5.56;68.23
58471;BME280;44258;51.288;12.068;2023-12-07T01:47:11;100708.00;;;5.52;68.25
58471;BME280;44258;51.288;12.068;2023-12-07T01:49:39;100706.19;;;5.52;68.64
58471;BME280;44258;51.288;12.068;2023-12-07T01:52:06;100711.44;;;5.56;68.34
58471;BME280;44258;51.288;12.068;2023-12-07T01:54:34;100716.00;;;5.52;68.43
58471;BME280;44258;51.288;12.068;2023-12-07T01:57:01;100713.28;;;5.53;68.61
58471;BME280;44258;51.288;12.068;2023-12-07T01:59:28;100717.59;;;5.58;68.36
58471;BME280;44258;51.288;12.068;2023-12-07T02:01:55;100723.06;;;5.53;68.33
58471;BME280;44258;51.288;12.068;2023-12-07T02:04:25;100719.72;;;5.46;68.88
58471;BME280;44258;51.288;12.068;2023-12-07T02:06:54;100717.09;;;5.45;68.59
58471;BME280;44258;51.288;12.068;2023-12-07T02:09:23;100722.28;;;5.49;68.66
58471;BME280;44258;51.288;12.068;2023-12-07T02:11:50;100722.09;;;5.56;68.62
58471;BME280;44258;51.288;12.068;2023-12-07T02:14:16;100728.34;;;5.56;68.64
58471;BME280;44258;51.288;12.068;2023-12-07T02:16:47;100726.59;;;5.53;68.62
58471;BME280;44258;51.288;12.068;2023-12-07T02:19:30;100733.59;;;5.58;68.87
58471;BME280;44258;51.288;12.068;2023-12-07T02:22:03;100742.34;;;5.63;68.30
58471;BME280;44258;51.288;12.068;2023-12-07T02:24:37;100740.41;;;5.68;68.23
58471;BME280;44258;51.288;12.068;2023-12-07T02:27:10;100744.66;;;5.75;68.08
58471;BME280;44258;51.288;12.068;2023-12-07T02:29:37;100741.81;;;5.81;67.76
58471;BME280;44258;51.288;12.068;2023-12-07T02:32:04;100742.63;;;5.83;67.68
58471;BME280;44258;51.288;12.068;2023-12-07T02:34:32;100748.19;;;5.76;67.59
58471;BME280;44258;51.288;12.068;2023-12-07T02:37:00;100743.00;;;5.71;68.30
58471;BME280;44258;51.288;12.068;2023-12-07T02:39:28;100742.81;;;5.77;67.75
58471;BME280;44258;51.288;12.068;2023-12-07T02:41:55;100749.00;;;5.79;67.94
58471;BME280;44258;51.288;12.068;2023-12-07T02:44:24;100741.03;;;5.78;67.94
58471;BME280;44258;51.288;12.068;2023-12-07T02:46:52;100750.88;;;5.76;68.17
58471;BME280;44258;51.288;12.068;2023-12-07T02:49:18;100747.28;;;5.77;68.30
58471;BME280;44258;51.288;12.068;2023-12-07T02:51:46;100750.84;;;5.77;68.31
58471;BME280;44258;51.288;12.068;2023-12-07T02:54:12;100752.63;;;5.77;68.09
58471;BME280;44258;51.288;12.068;2023-12-07T02:56:40;100751.63;;;5.81;67.66
58471;BME280;44258;51.288;12.068;2023-12-07T02:59:08;100757.16;;;5.74;67.99
58471;BME280;44258;51.288;12.068;2023-12-07T03:01:36;100758.19;;;5.69;68.03
58471;BME280;44258;51.288;12.068;2023-12-07T03:04:03;100761.56;;;5.74;67.80
58471;BME280;44258;51.288;12.068;2023-12-07T03:06:29;100765.38;;;5.67;68.35
58471;BME280;44258;51.288;12.068;2023-12-07T03:08:56;100764.34;;;5.71;68.22
58471;BME280;44258;51.288;12.068;2023-12-07T03:11:24;100757.41;;;5.65;68.19
58471;BME280;44258;51.288;12.068;2023-12-07T03:13:51;100766.50;;;5.58;68.80
58471;BME280;44258;51.288;12.068;2023-12-07T03:16:17;100768.34;;;5.56;68.89
58471;BME280;44258;51.288;12.068;2023-12-07T03:18:47;100757.59;;;5.58;68.74
58471;BME280;44258;51.288;12.068;2023-12-07T03:21:17;100767.09;;;5.68;68.26
58471;BME280;44258;51.288;12.068;2023-12-07T03:23:43;100760.88;;;5.67;67.93
58471;BME280;44258;51.288;12.068;2023-12-07T03:26:11;100767.09;;;5.68;68.14
58471;BME280;44258;51.288;12.068;2023-12-07T03:28:38;100774.06;;;5.73;68.43
58471;BME280;44258;51.288;12.068;2023-12-07T03:31:05;100765.88;;;5.80;68.16
58471;BME280;44258;51.288;12.068;2023-12-07T03:33:31;100766.66;;;5.83;67.94
58471;BME280;44258;51.288;12.068;2023-12-07T03:35:59;100769.28;;;5.85;67.78
58471;BME280;44258;51.288;12.068;2023-12-07T03:38:28;100774.66;;;5.83;67.44
58471;BME280;44258;51.288;12.068;2023-12-07T03:40:54;100772.03;;;5.82;67.43
58471;BME280;44258;51.288;12.068;2023-12-07T03:43:22;100771.38;;;5.73;67.84
58471;BME280;44258;51.288;12.068;2023-12-07T03:45:47;100767.28;;;5.62;68.24
58471;BME280;44258;51.288;12.068;2023-12-07T03:48:14;100779.03;;;5.56;67.69
58471;BME280;44258;51.288;12.068;2023-12-07T03:50:41;100776.41;;;5.53;68.33
58471;BME280;44258;51.288;12.068;2023-12-07T03:53:09;100780.69;;;5.60;68.16
58471;BME280;44258;51.288;12.068;2023-12-07T03:55:36;100785.13;;;5.60;68.21
58471;BME280;44258;51.288;12.068;2023-12-07T03:58:03;100785.03;;;5.63;67.85
58471;BME280;44258;51.288;12.068;2023-12-07T04:00:31;100792.13;;;5.64;68.13
58471;BME280;44258;51.288;12.068;2023-12-07T04:02:58;100783.25;;;5.63;67.89
58471;BME280;44258;51.288;12.068;2023-12-07T04:05:24;100795.69;;;5.64;68.22
58471;BME280;44258;51.288;12.068;2023-12-07T04:07:53;100795.78;;;5.60;68.36
58471;BME280;44258;51.288;12.068;2023-12-07T04:10:21;100801.13;;;5.60;68.06
58471;BME280;44258;51.288;12.068;2023-12-07T04:12:47;100802.13;;;5.56;68.62
58471;BME280;44258;51.288;12.068;2023-12-07T04:15:14;100800.28;;;5.58;68.50
58471;BME280;44258;51.288;12.068;2023-12-07T04:17:41;100799.41;;;5.57;68.64
58471;BME280;44258;51.288;12.068;2023-12-07T04:20:10;100798.56;;;5.57;68.38
58471;BME280;44258;51.288;12.068;2023-12-07T04:22:38;100798.63;;;5.53;68.71
58471;BME280;44258;51.288;12.068;2023-12-07T04:25:05;100795.84;;;5.58;68.53
58471;BME280;44258;51.288;12.068;2023-12-07T04:27:33;100801.94;;;5.62;68.17
58471;BME280;44258;51.288;12.068;2023-12-07T04:30:02;100808.00;;;5.68;68.30
58471;BME280;44258;51.288;12.068;2023-12-07T04:32:31;100804.75;;;5.57;67.94
58471;BME280;44258;51.288;12.068;2023-12-07T04:34:58;100810.19;;;5.54;68.32
58471;BME280;44258;51.288;12.068;2023-12-07T04:37:25;100817.19;;;5.58;68.54
58471;BME280;44258;51.288;12.068;2023-12-07T04:39:51;100816.28;;;5.58;68.37
58471;BME280;44258;51.288;12.068;2023-12-07T04:42:18;100807.22;;;5.65;68.40
58471;BME280;44258;51.288;12.068;2023-12-07T04:44:46;100825.09;;;5.61;68.03
58471;BME280;44258;51.288;12.068;2023-12-07T04:47:13;100818.75;;;5.65;67.93
58471;BME280;44258;51.288;12.068;2023-12-07T04:49:40;100823.03;;;5.72;67.86
58471;BME280;44258;51.288;12.068;2023-12-07T04:52:07;100823.84;;;5.74;67.72
58471;BME280;44258;51.288;12.068;2023-12-07T04:54:33;100824.94;;;5.67;67.89
58471;BME280;44258;51.288;12.068;2023-12-07T04:57:02;100816.84;;;5.70;67.79
58471;BME280;44258;51.288;12.068;2023-12-07T04:59:29;100825.03;;;5.64;67.95
58471;BME280;44258;51.288;12.068;2023-12-07T05:01:57;100825.78;;;5.68;68.02
58471;BME280;44258;51.288;12.068;2023-12-07T05:04:23;100820.44;;;5.68;68.23
58471;BME280;44258;51.288;12.068;2023-12-07T05:06:50;100825.03;;;5.64;68.27
58471;BME280;44258;51.288;12.068;2023-12-07T05:09:17;100818.88;;;5.62;68.02
58471;BME280;44258;51.288;12.068;2023-12-07T05:11:43;100822.44;;;5.61;67.85
58471;BME280;44258;51.288;12.068;2023-12-07T05:14:11;100831.38;;;5.60;68.42
58471;BME280;44258;51.288;12.068;2023-12-07T05:16:38;100822.28;;;5.66;68.07
58471;BME280;44258;51.288;12.068;2023-12-07T05:19:06;100827.97;;;5.53;68.17
58471;BME280;44258;51.288;12.068;2023-12-07T05:21:33;100820.78;;;5.56;68.20
58471;BME280;44258;51.288;12.068;2023-12-07T05:24:00;100827.63;;;5.66;68.46
58471;BME280;44258;51.288;12.068;2023-12-07T05:26:27;100834.56;;;5.73;67.90
58471;BME280;44258;51.288;12.068;2023-12-07T05:28:55;100839.91;;;5.73;68.00
58471;BME280;44258;51.288;12.068;2023-12-07T05:31:21;100843.41;;;5.75;67.79
58471;BME280;44258;51.288;12.068;2023-12-07T05:33:49;100844.25;;;5.76;67.74
58471;BME280;44258;51.288;12.068;2023-12-07T05:36:18;100854.88;;;5.79;67.70
58471;BME280;44258;51.288;12.068;2023-12-07T05:38:46;100852.09;;;5.82;67.36
58471;BME280;44258;51.288;12.068;2023-12-07T05:41:13;100852.13;;;5.80;67.49
58471;BME280;44258;51.288;12.068;2023-12-07T05:43:43;100857.53;;;5.79;67.26
58471;BME280;44258;51.288;12.068;2023-12-07T05:46:09;100855.81;;;5.76;67.68
58471;BME280;44258;51.288;12.068;2023-12-07T05:48:36;100855.06;;;5.71;67.35
58471;BME280;44258;51.288;12.068;2023-12-07T05:51:04;100845.13;;;5.76;67.52
58471;BME280;44258;51.288;12.068;2023-12-07T05:53:32;100857.75;;;5.71;67.77
58471;BME280;44258;51.288;12.068;2023-12-07T05:55:59;100853.09;;;5.78;67.59
58471;BME280;44258;51.288;12.068;2023-12-07T05:58:25;100852.88;;;5.85;67.18
58471;BME280;44258;51.288;12.068;2023-12-07T06:00:52;100853.91;;;5.81;67.14
58471;BME280;44258;51.288;12.068;2023-12-07T06:03:19;100857.38;;;5.85;67.32
58471;BME280;44258;51.288;12.068;2023-12-07T06:05:46;100853.09;;;5.78;67.13
58471;BME280;44258;51.288;12.068;2023-12-07T06:08:14;100857.81;;;5.68;67.36
58471;BME280;44258;51.288;12.068;2023-12-07T06:10:42;100855.06;;;5.71;67.73
58471;BME280;44258;51.288;12.068;2023-12-07T06:13:09;100857.59;;;5.76;67.52
58471;BME280;44258;51.288;12.068;2023-12-07T06:15:36;100862.81;;;5.80;67.20
58471;BME280;44258;51.288;12.068;2023-12-07T06:18:02;100859.13;;;5.84;67.42
58471;BME280;44258;51.288;12.068;2023-12-07T06:20:29;100858.22;;;5.85;67.22
58471;BME280;44258;51.288;12.068;2023-12-07T06:22:57;100869.75;;;5.87;67.19
58471;BME280;44258;51.288;12.068;2023-12-07T06:25:26;100869.63;;;5.92;66.89
58471;BME280;44258;51.288;12.068;2023-12-07T06:27:54;100877.63;;;5.92;66.78
58471;BME280;44258;51.288;12.068;2023-12-07T06:30:22;100874.00;;;5.94;66.82
58471;BME280;44258;51.288;12.068;2023-12-07T06:32:50;100876.94;;;5.84;67.00
58471;BME280;44258;51.288;12.068;2023-12-07T06:35:16;100884.09;;;5.83;67.09
58471;BME280;44258;51.288;12.068;2023-12-07T06:37:43;100889.31;;;5.86;67.40
58471;BME280;44258;51.288;12.068;2023-12-07T06:40:10;100883.03;;;5.89;67.12
58471;BME280;44258;51.288;12.068;2023-12-07T06:42:37;100876.81;;;5.88;67.21
58471;BME280;44258;51.288;12.068;2023-12-07T06:45:07;100885.66;;;5.90;67.15
58471;BME280;44258;51.288;12.068;2023-12-07T06:47:37;100884.75;;;5.93;66.67
58471;BME280;44258;51.288;12.068;2023-12-07T06:50:05;100879.53;;;5.87;66.80
58471;BME280;44258;51.288;12.068;2023-12-07T06:52:34;100889.44;;;5.83;66.59
58471;BME280;44258;51.288;12.068;2023-12-07T06:55:01;100886.63;;;5.88;67.15
58471;BME280;44258;51.288;12.068;2023-12-07T06:57:27;100885.88;;;5.83;66.91
58471;BME280;44258;51.288;12.068;2023-12-07T06:59:54;100877.97;;;5.78;66.99
58471;BME280;44258;51.288;12.068;2023-12-07T07:02:23;100889.44;;;5.83;67.15
58471;BME280;44258;51.288;12.068;2023-12-07T07:04:51;100883.09;;;5.87;66.86
58471;BME280;44258;51.288;12.068;2023-12-07T07:07:17;100890.94;;;5.93;66.71
58471;BME280;44258;51.288;12.068;2023-12-07T07:09:44;100888.25;;;5.95;66.41
58471;BME280;44258;51.288;12.068;2023-12-07T07:12:11;100896.19;;;5.97;66.53
58471;BME280;44258;51.288;12.068;2023-12-07T07:14:37;100900.59;;;5.99;66.56
58471;BME280;44258;51.288;12.068;2023-12-07T07:17:04;100888.16;;;5.98;66.73
58471;BME280;44258;51.288;12.068;2023-12-07T07:19:34;100898.75;;;6.01;66.42
58471;BME280;44258;51.288;12.068;2023-12-07T07:22:00;100897.03;;;5.99;66.30
58471;BME280;44258;51.288;12.068;2023-12-07T07:24:27;100893.59;;;5.95;66.88
58471;BME280;44258;51.288;12.068;2023-12-07T07:26:54;100899.84;;;5.92;66.54
58471;BME280;44258;51.288;12.068;2023-12-07T07:29:21;100899.97;;;5.88;66.55
58471;BME280;44258;51.288;12.068;2023-12-07T07:31:49;100903.56;;;5.87;66.85
58471;BME280;44258;51.288;12.068;2023-12-07T07:34:15;100900.06;;;5.85;67.08
58471;BME280;44258;51.288;12.068;2023-12-07T07:36:44;100897.63;;;5.76;66.96
58471;BME280;44258;51.288;12.068;2023-12-07T07:39:11;100902.94;;;5.77;67.52
58471;BME280;44258;51.288;12.068;2023-12-07T07:41:40;100917.78;;;5.87;67.31
58471;BME280;44258;51.288;12.068;2023-12-07T07:44:07;100916.69;;;5.96;67.09
58471;BME280;44258;51.288;12.068;2023-12-07T07:46:34;100917.63;;;5.93;66.53
58471;BME280;44258;51.288;12.068;2023-12-07T07:49:00;100918.44;;;5.97;66.35
58471;BME280;44258;51.288;12.068;2023-12-07T07:51:29;100923.59;;;6.03;66.48
58471;BME280;44258;51.288;12.068;2023-12-07T07:53:58;100915.00;;;5.92;66.74
58471;BME280;44258;51.288;12.068;2023-12-07T07:56:25;100924.94;;;5.85;67.04
58471;BME280;44258;51.288;12.068;2023-12-07T07:58:51;100920.59;;;5.83;66.79
58471;BME280;44258;51.288;12.068;2023-12-07T08:01:19;100921.34;;;5.86;67.44
58471;BME280;44258;51.288;12.068;2023-12-07T08:03:45;100920.22;;;5.97;67.06
58471;BME280;44258;51.288;12.068;2023-12-07T08:06:13;100924.47;;;6.04;66.85
58471;BME280;44258;51.288;12.068;2023-12-07T08:08:39;100925.25;;;6.09;66.44
58471;BME280;44258;51.288;12.068;2023-12-07T08:11:08;100922.63;;;6.06;66.68
58471;BME280;44258;51.288;12.068;2023-12-07T08:13:35;100931.31;;;5.80;66.52
58471;BME280;44258;51.288;12.068;2023-12-07T08:16:01;100937.47;;;5.83;67.10
58471;BME280;44258;51.288;12.068;2023-12-07T08:18:28;100929.41;;;5.85;67.23
58471;BME280;44258;51.288;12.068;2023-12-07T08:20:55;100923.94;;;5.91;67.03
58471;BME280;44258;51.288;12.068;2023-12-07T08:23:22;100934.34;;;6.00;67.01
58471;BME280;44258;51.288;12.068;2023-12-07T08:25:49;100932.44;;;6.05;66.57
58471;BME280;44258;51.288;12.068;2023-12-07T08:28:17;100933.28;;;6.07;66.30
58471;BME280;44258;51.288;12.068;2023-12-07T08:30:44;100937.69;;;6.08;66.30
58471;BME280;44258;51.288;12.068;2023-12-07T08:33:11;100938.03;;;5.96;66.35
58471;BME280;44258;51.288;12.068;2023-12-07T08:35:37;100940.84;;;5.91;66.78
58471;BME280;44258;51.288;12.068;2023-12-07T08:38:04;100937.63;;;5.77;67.35
58471;BME280;44258;51.288;12.068;2023-12-07T08:40:31;100945.66;;;5.76;67.24
58471;BME280;44258;51.288;12.068;2023-12-07T08:42:58;100946.34;;;5.84;67.32
58471;BME280;44258;51.288;12.068;2023-12-07T08:45:27;100945.38;;;5.86;67.20
58471;BME280;44258;51.288;12.068;2023-12-07T08:47:54;100948.09;;;5.85;66.99
58471;BME280;44258;51.288;12.068;2023-12-07T08:50:21;100958.41;;;5.99;66.95
58471;BME280;44258;51.288;12.068;2023-12-07T08:52:48;100952.22;;;5.98;66.77
58471;BME280;44258;51.288;12.068;2023-12-07T08:55:14;100960.25;;;5.97;66.71
58471;BME280;44258;51.288;12.068;2023-12-07T08:57:42;100965.53;;;6.00;66.69
58471;BME280;44258;51.288;12.068;2023-12-07T09:00:10;100951.34;;;5.98;66.86
58471;BME280;44258;51.288;12.068;2023-12-07T09:02:39;100959.34;;;5.98;67.19
58471;BME280;44258;51.288;12.068;2023-12-07T09:05:07;100967.34;;;5.98;67.25
58471;BME280;44258;51.288;12.068;2023-12-07T09:07:34;100955.84;;;5.96;67.13
58471;BME280;44258;51.288;12.068;2023-12-07T09:10:00;100968.31;;;5.95;67.45
58471;BME280;44258;51.288;12.068;2023-12-07T09:12:28;100963.91;;;5.92;67.80
58471;BME280;44258;51.288;12.068;2023-12-07T09:14:55;100960.94;;;6.05;66.88
58471;BME280;44258;51.288;12.068;2023-12-07T09:17:22;100973.59;;;5.97;67.21
58471;BME280;44258;51.288;12.068;2023-12-07T09:19:50;100968.31;;;5.95;67.17
58471;BME280;44258;51.288;12.068;2023-12-07T09:22:17;100966.22;;;6.06;67.28
58471;BME280;44258;51.288;12.068;2023-12-07T09:24:43;100970.63;;;6.09;67.13
58471;BME280;44258;51.288;12.068;2023-12-07T09:27:11;100968.66;;;6.16;66.65
58471;BME280;44258;51.288;12.068;2023-12-07T09:29:38;100965.88;;;6.19;66.42
58471;BME280;44258;51.288;12.068;2023-12-07T09:32:06;100971.53;;;6.08;66.95
58471;BME280;44258;51.288;12.068;2023-12-07T09:34:32;100968.19;;;6.00;67.38
58471;BME280;44258;51.288;12.068;2023-12-07T09:37:07;100967.25;;;6.01;67.57
58471;BME280;44258;51.288;12.068;2023-12-07T09:39:34;100963.44;;;6.11;67.42
58471;BME280;44258;51.288;12.068;2023-12-07T09:42:01;100962.44;;;6.15;67.29
58471;BME280;44258;51.288;12.068;2023-12-07T09:44:28;100971.16;;;6.22;67.00
58471;BME280;44258;51.288;12.068;2023-12-07T09:46:55;100973.97;;;6.17;67.10
58471;BME280;44258;51.288;12.068;2023-12-07T09:49:21;100975.16;;;6.05;67.24
58471;BME280;44258;51.288;12.068;2023-12-07T09:51:49;100966.00;;;6.16;67.45
58471;BME280;44258;51.288;12.068;2023-12-07T09:54:20;100963.09;;;6.23;66.79
58471;BME280;44258;51.288;12.068;2023-12-07T09:56:48;100962.63;;;6.09;67.32
58471;BME280;44258;51.288;12.068;2023-12-07T09:59:17;100971.41;;;6.12;67.28
58471;BME280;44258;51.288;12.068;2023-12-07T10:01:44;100968.78;;;6.11;67.34
58471;BME280;44258;51.288;12.068;2023-12-07T10:04:19;100975.88;;;6.12;67.09
58471;BME280;44258;51.288;12.068;2023-12-07T10:06:48;100970.47;;;6.15;67.33
58471;BME280;44258;51.288;12.068;2023-12-07T10:09:15;100966.78;;;6.19;67.27
58471;BME280;44258;51.288;12.068;2023-12-07T10:11:44;100966.66;;;6.24;67.17
58471;BME280;44258;51.288;12.068;2023-12-07T10:14:13;100963.97;;;6.24;67.07
58471;BME280;44258;51.288;12.068;2023-12-07T10:16:52;100961.09;;;6.31;67.22
58471;BME280;44258;51.288;12.068;2023-12-07T10:19:20;100972.19;;;6.47;66.60
58471;BME280;44258;51.288;12.068;2023-12-07T10:21:49;100970.13;;;6.57;66.32
58471;BME280;44258;51.288;12.068;2023-12-07T10:24:18;100968.44;;;6.54;66.54
58471;BME280;44258;51.288;12.068;2023-12-07T10:26:48;100957.72;;;6.56;66.35
58471;BME280;44258;51.288;12.068;2023-12-07T10:29:17;100964.06;;;6.52;66.37
58471;BME280;44258;51.288;12.068;2023-12-07T10:31:45;100962.94;;;6.59;66.70
58471;BME280;44258;51.288;12.068;2023-12-07T10:34:13;100963.59;;;6.67;66.63
58471;BME280;44258;51.288;12.068;2023-12-07T10:36:45;100956.34;;;6.72;66.47
58471;BME280;44258;51.288;12.068;2023-12-07T10:39:12;100953.91;;;6.63;66.38
58471;BME280;44258;51.288;12.068;2023-12-07T10:41:39;100953.88;;;6.65;66.38
58471;BME280;44258;51.288;12.068;2023-12-07T10:44:13;100960.69;;;6.75;66.02
58471;BME280;44258;51.288;12.068;2023-12-07T10:46:42;100946.31;;;6.79;66.05
58471;BME280;44258;51.288;12.068;2023-12-07T10:49:14;100949.63;;;6.87;66.41
58471;BME280;44258;51.288;12.068;2023-12-07T10:51:53;100944.88;;;6.97;65.68
58471;BME280;44258;51.288;12.068;2023-12-07T10:54:30;100957.38;;;6.97;65.87
58471;BME280;44258;51.288;12.068;2023-12-07T10:57:01;100950.63;;;6.85;66.23
58471;BME280;44258;51.288;12.068;2023-12-07T10:59:32;100947.94;;;6.85;65.82
58471;BME280;44258;51.288;12.068;2023-12-07T11:02:02;100953.06;;;6.92;66.18
58471;BME280;44258;51.288;12.068;2023-12-07T11:04:32;100957.22;;;7.01;65.64
58471;BME280;44258;51.288;12.068;2023-12-07T11:07:05;100957.81;;;6.83;66.04
58471;BME280;44258;51.288;12.068;2023-12-07T11:09:41;100952.53;;;6.80;65.81
58471;BME280;44258;51.288;12.068;2023-12-07T11:12:16;100950.50;;;6.88;66.13
58471;BME280;44258;51.288;12.068;2023-12-07T11:14:46;100948.53;;;6.94;65.71
58471;BME280;44258;51.288;12.068;2023-12-07T11:17:14;100941.03;;;7.06;65.72
58471;BME280;44258;51.288;12.068;2023-12-07T11:19:46;100947.38;;;7.03;65.58
58471;BME280;44258;51.288;12.068;2023-12-07T11:22:13;100943.50;;;7.12;65.78
58471;BME280;44258;51.288;12.068;2023-12-07T11:24:52;100941.59;;;7.17;65.24
58471;BME280;44258;51.288;12.068;2023-12-07T11:27:19;100947.47;;;7.27;65.31
58471;BME280;44258;51.288;12.068;2023-12-07T11:29:49;100938.44;;;7.31;64.75
58471;BME280;44258;51.288;12.068;2023-12-07T11:32:15;100937.53;;;7.32;65.08
58471;BME280;44258;51.288;12.068;2023-12-07T11:34:43;100936.44;;;7.38;64.81
58471;BME280;44258;51.288;12.068;2023-12-07T11:37:11;100937.97;;;7.45;64.81
58471;BME280;44258;51.288;12.068;2023-12-07T11:39:39;100944.78;;;7.55;64.49
58471;BME280;44258;51.288;12.068;2023-12-07T11:42:10;100941.34;;;7.51;64.20
58471;BME280;44258;51.288;12.068;2023-12-07T11:44:38;100934.34;;;7.47;64.43
58471;BME280;44258;51.288;12.068;2023-12-07T11:47:06;100935.06;;;7.52;64.33
58471;BME280;44258;51.288;12.068;2023-12-07T11:49:34;100935.16;;;7.49;64.12
58471;BME280;44258;51.288;12.068;2023-12-07T11:52:01;100930.66;;;7.51;64.54
58471;BME280;44258;51.288;12.068;2023-12-07T11:54:44;100935.88;;;7.54;64.27
58471;BME280;44258;51.288;12.068;2023-12-07T11:57:12;100924.19;;;7.57;64.22
58471;BME280;44258;51.288;12.068;2023-12-07T11:59:39;100920.44;;;7.63;64.51
58471;BME280;44258;51.288;12.068;2023-12-07T12:02:10;100930.84;;;7.72;64.38
58471;BME280;44258;51.288;12.068;2023-12-07T12:04:38;100926.13;;;7.79;64.07
58471;BME280;44258;51.288;12.068;2023-12-07T12:07:05;100917.19;;;7.80;64.04
58471;BME280;44258;51.288;12.068;2023-12-07T12:09:31;100926.03;;;7.82;63.81
58471;BME280;44258;51.288;12.068;2023-12-07T12:11:59;100919.66;;;7.86;63.90
58471;BME280;44258;51.288;12.068;2023-12-07T12:14:27;100916.09;;;7.85;64.02
58471;BME280;44258;51.288;12.068;2023-12-07T12:16:53;100916.16;;;7.84;63.09
58471;BME280;44258;51.288;12.068;2023-12-07T12:19:22;100910.97;;;7.78;63.56
58471;BME280;44258;51.288;12.068;2023-12-07T12:21:49;100909.53;;;7.42;62.93
58471;BME280;44258;51.288;12.068;2023-12-07T12:24:19;100909.53;;;7.42;63.13
58471;BME280;44258;51.288;12.068;2023-12-07T12:26:48;100911.22;;;7.45;63.18
58471;BME280;44258;51.288;12.068;2023-12-07T12:29:15;100908.53;;;7.45;62.88
58471;BME280;44258;51.288;12.068;2023-12-07T12:31:43;100909.25;;;7.51;62.78
58471;BME280;44258;51.288;12.068;2023-12-07T12:34:10;100905.41;;;7.59;62.76
58471;BME280;44258;51.288;12.068;2023-12-07T12:36:39;100901.91;;;7.57;62.44
58471;BME280;44258;51.288;12.068;2023-12-07T12:39:08;100905.66;;;7.51;62.56
58471;BME280;44258;51.288;12.068;2023-12-07T12:41:36;100903.66;;;7.58;62.44
58471;BME280;44258;51.288;12.068;2023-12-07T12:44:04;100899.66;;;7.44;62.43
58471;BME280;44258;51.288;12.068;2023-12-07T12:46:31;100900.31;;;7.51;62.60
58471;BME280;44258;51.288;12.068;2023-12-07T12:49:01;100904.31;;;7.64;62.42
58471;BME280;44258;51.288;12.068;2023-12-07T12:51:29;100903.47;;;7.64;61.96
58471;BME280;44258;51.288;12.068;2023-12-07T12:53:59;100900.09;;;7.57;61.75